createdAt,value
2017-07-30T00:00:36.866Z,19.38
2017-07-30T00:01:36.865Z,19.40
2017-07-30T00:02:39.625Z,19.41
2017-07-30T00:03:36.871Z,19.42
2017-07-30T00:04:36.875Z,19.46
2017-07-30T00:05:36.906Z,19.49
2017-07-30T00:06:36.885Z,19.53
2017-07-30T00:07:36.881Z,19.54
2017-07-30T00:08:36.883Z,19.57
2017-07-30T00:09:36.884Z,19.59
2017-07-30T00:10:36.887Z,19.59
2017-07-30T00:11:36.894Z,19.59
2017-07-30T00:12:36.897Z,19.59
2017-07-30T00:13:36.901Z,19.57
2017-07-30T00:14:36.902Z,19.57
2017-07-30T00:15:37.103Z,19.56
2017-07-30T00:16:36.932Z,19.54
2017-07-30T00:17:36.910Z,19.53
2017-07-30T00:18:36.911Z,19.53
2017-07-30T00:19:36.916Z,19.51
2017-07-30T00:20:36.913Z,19.47
2017-07-30T00:21:36.919Z,19.38
2017-07-30T00:22:36.920Z,19.33
2017-07-30T00:23:36.926Z,19.27
2017-07-30T00:24:36.929Z,19.20
2017-07-30T00:25:36.931Z,19.16
2017-07-30T00:26:36.931Z,19.12
2017-07-30T00:27:36.935Z,19.08
2017-07-30T00:28:36.938Z,19.03
2017-07-30T00:29:36.945Z,18.99
2017-07-30T00:30:37.028Z,18.97
2017-07-30T00:31:36.965Z,18.94
2017-07-30T00:32:36.948Z,18.93
2017-07-30T00:33:36.953Z,18.92
2017-07-30T00:34:36.957Z,18.90
2017-07-30T00:35:36.958Z,18.87
2017-07-30T00:36:36.960Z,18.84
2017-07-30T00:37:36.963Z,18.84
2017-07-30T00:38:36.979Z,18.83
2017-07-30T00:39:36.973Z,18.85
2017-07-30T00:40:36.973Z,18.84
2017-07-30T00:41:36.975Z,18.86
2017-07-30T00:42:36.981Z,18.89
2017-07-30T00:43:36.985Z,18.90
2017-07-30T00:44:36.985Z,18.92
2017-07-30T00:45:36.989Z,18.92
2017-07-30T00:46:36.991Z,18.95
2017-07-30T00:47:36.993Z,18.96
2017-07-30T00:48:36.999Z,18.96
2017-07-30T00:49:36.998Z,18.95
2017-07-30T00:50:37.012Z,18.95
2017-07-30T00:51:37.008Z,18.96
2017-07-30T00:52:37.061Z,18.93
2017-07-30T00:53:37.010Z,18.92
2017-07-30T00:54:37.022Z,18.89
2017-07-30T00:55:37.017Z,18.85
2017-07-30T00:56:37.029Z,18.84
2017-07-30T00:57:37.028Z,18.79
2017-07-30T00:58:37.028Z,18.75
2017-07-30T00:59:37.030Z,18.71
2017-07-30T01:02:38.481Z,18.70
2017-07-30T01:02:39.535Z,18.69
2017-07-30T01:02:40.146Z,18.67
2017-07-30T01:05:46.131Z,18.64
2017-07-30T01:05:47.416Z,18.59
2017-07-30T01:05:48.718Z,18.59
2017-07-30T01:08:33.061Z,18.57
2017-07-30T01:08:34.089Z,18.58
2017-07-30T01:08:37.050Z,18.61
2017-07-30T01:11:47.212Z,18.65
2017-07-30T01:11:48.913Z,18.68
2017-07-30T01:11:50.379Z,18.71
2017-07-30T01:14:20.919Z,18.73
2017-07-30T01:14:22.228Z,18.73
2017-07-30T01:14:37.070Z,18.71
2017-07-30T01:17:46.879Z,18.72
2017-07-30T01:17:47.949Z,18.72
2017-07-30T01:17:49.426Z,18.72
2017-07-30T01:20:26.052Z,18.73
2017-07-30T01:20:26.875Z,18.74
2017-07-30T01:20:37.084Z,18.75
2017-07-30T01:23:49.017Z,18.76
2017-07-30T01:23:51.289Z,18.76
2017-07-30T01:23:52.319Z,18.77
2017-07-30T01:26:31.931Z,18.76
2017-07-30T01:26:33.097Z,18.78
2017-07-30T01:26:37.101Z,18.82
2017-07-30T01:29:46.835Z,18.86
2017-07-30T01:29:48.245Z,18.89
2017-07-30T01:29:49.628Z,18.91
2017-07-30T01:33:05.028Z,18.95
2017-07-30T01:33:06.446Z,18.95
2017-07-30T01:33:07.153Z,18.97
2017-07-30T01:35:49.969Z,19.00
2017-07-30T01:35:51.964Z,19.00
2017-07-30T01:35:52.800Z,19.03
2017-07-30T01:39:02.925Z,19.05
2017-07-30T01:39:04.084Z,19.05
2017-07-30T01:39:04.692Z,19.04
2017-07-30T01:41:50.990Z,19.04
2017-07-30T01:41:52.583Z,19.03
2017-07-30T01:41:53.287Z,19.02
2017-07-30T01:44:38.172Z,19.01
2017-07-30T01:44:39.181Z,19.01
2017-07-30T01:44:39.884Z,19.03
2017-07-30T01:47:51.002Z,19.03
2017-07-30T01:47:52.754Z,19.03
2017-07-30T01:47:53.361Z,19.02
2017-07-30T01:50:27.275Z,19.01
2017-07-30T01:50:28.606Z,18.99
2017-07-30T01:50:37.171Z,18.97
2017-07-30T01:53:43.891Z,18.95
2017-07-30T01:53:45.180Z,18.95
2017-07-30T01:53:45.894Z,18.95
2017-07-30T01:56:34.136Z,18.93
2017-07-30T01:56:35.284Z,18.91
2017-07-30T01:56:37.187Z,18.89
2017-07-30T01:59:49.853Z,18.91
2017-07-30T01:59:51.507Z,18.92
2017-07-30T01:59:52.723Z,18.95
2017-07-30T02:00:37.207Z,18.97
2017-07-30T02:01:37.206Z,18.96
2017-07-30T02:02:37.210Z,18.97
2017-07-30T02:03:37.212Z,18.97
2017-07-30T02:04:37.217Z,18.97
2017-07-30T02:05:37.223Z,18.96
2017-07-30T02:06:37.218Z,18.95
2017-07-30T02:07:37.224Z,18.96
2017-07-30T02:08:37.227Z,18.95
2017-07-30T02:09:37.226Z,18.94
2017-07-30T02:10:37.243Z,18.92
2017-07-30T02:11:37.231Z,18.92
2017-07-30T02:12:37.235Z,18.93
2017-07-30T02:13:37.238Z,18.92
2017-07-30T02:14:37.243Z,18.94
2017-07-30T02:15:37.246Z,18.93
2017-07-30T02:16:37.257Z,18.92
2017-07-30T02:17:37.255Z,18.91
2017-07-30T02:18:37.255Z,18.89
2017-07-30T02:19:37.253Z,18.89
2017-07-30T02:20:37.257Z,18.88
2017-07-30T02:21:37.262Z,18.88
2017-07-30T02:22:37.263Z,18.85
2017-07-30T02:23:37.266Z,18.85
2017-07-30T02:24:37.268Z,18.85
2017-07-30T02:25:37.272Z,18.84
2017-07-30T02:26:37.281Z,18.79
2017-07-30T02:27:37.276Z,18.75
2017-07-30T02:28:37.280Z,18.71
2017-07-30T02:29:37.284Z,18.66
2017-07-30T02:30:37.285Z,18.62
2017-07-30T02:31:37.288Z,18.62
2017-07-30T02:32:37.294Z,18.61
2017-07-30T02:33:37.291Z,18.60
2017-07-30T02:34:37.296Z,18.62
2017-07-30T02:35:37.300Z,18.61
2017-07-30T02:36:37.301Z,18.62
2017-07-30T02:37:37.303Z,18.63
2017-07-30T02:38:37.308Z,18.64
2017-07-30T02:39:37.310Z,18.66
2017-07-30T02:40:37.316Z,18.67
2017-07-30T02:41:37.316Z,18.67
2017-07-30T02:42:37.325Z,18.67
2017-07-30T02:43:37.322Z,18.67
2017-07-30T02:44:37.329Z,18.68
2017-07-30T02:45:37.328Z,18.69
2017-07-30T02:46:37.336Z,18.70
2017-07-30T02:47:37.334Z,18.71
2017-07-30T02:48:37.336Z,18.70
2017-07-30T02:49:37.343Z,18.71
2017-07-30T02:50:37.339Z,18.72
2017-07-30T02:51:37.356Z,18.74
2017-07-30T02:52:37.347Z,18.74
2017-07-30T02:53:37.351Z,18.74
2017-07-30T02:54:37.352Z,18.74
2017-07-30T02:55:37.358Z,18.73
2017-07-30T02:56:37.364Z,18.71
2017-07-30T02:57:37.364Z,18.71
2017-07-30T02:58:37.366Z,18.69
2017-07-30T02:59:37.369Z,18.68
2017-07-30T03:00:37.376Z,18.68
2017-07-30T03:01:37.378Z,18.65
2017-07-30T03:02:37.380Z,18.61
2017-07-30T03:03:37.382Z,18.58
2017-07-30T03:04:37.385Z,18.56
2017-07-30T03:05:37.387Z,18.54
2017-07-30T03:06:37.388Z,18.52
2017-07-30T03:07:37.392Z,18.51
2017-07-30T03:08:37.394Z,18.47
2017-07-30T03:09:37.399Z,18.47
2017-07-30T03:10:37.402Z,18.47
2017-07-30T03:11:37.405Z,18.46
2017-07-30T03:12:37.406Z,18.44
2017-07-30T03:13:37.408Z,18.44
2017-07-30T03:14:37.412Z,18.42
2017-07-30T03:15:37.448Z,18.40
2017-07-30T03:16:37.417Z,18.39
2017-07-30T03:17:37.419Z,18.40
2017-07-30T03:18:37.423Z,18.39
2017-07-30T03:19:37.435Z,18.40
2017-07-30T03:20:37.447Z,18.41
2017-07-30T03:21:37.438Z,18.41
2017-07-30T03:22:37.437Z,18.41
2017-07-30T03:23:37.437Z,18.41
2017-07-30T03:24:37.441Z,18.42
2017-07-30T03:25:37.444Z,18.41
2017-07-30T03:26:37.449Z,18.40
2017-07-30T03:27:37.452Z,18.39
2017-07-30T03:28:37.452Z,18.38
2017-07-30T03:29:37.457Z,18.37
2017-07-30T03:30:37.458Z,18.36
2017-07-30T03:31:37.461Z,18.35
2017-07-30T03:32:37.464Z,18.36
2017-07-30T03:33:37.472Z,18.35
2017-07-30T03:34:37.470Z,18.35
2017-07-30T03:35:37.477Z,18.35
2017-07-30T03:36:37.475Z,18.35
2017-07-30T03:37:37.480Z,18.32
2017-07-30T03:38:37.477Z,18.34
2017-07-30T03:39:37.504Z,18.34
2017-07-30T03:40:37.486Z,18.33
2017-07-30T03:41:37.492Z,18.33
2017-07-30T03:42:37.492Z,18.33
2017-07-30T03:43:37.496Z,18.34
2017-07-30T03:44:37.498Z,18.33
2017-07-30T03:45:37.503Z,18.34
2017-07-30T03:46:37.503Z,18.35
2017-07-30T03:47:37.510Z,18.33
2017-07-30T03:48:37.509Z,18.36
2017-07-30T03:49:37.514Z,18.35
2017-07-30T03:50:37.514Z,18.37
2017-07-30T03:51:37.519Z,18.36
2017-07-30T03:52:37.527Z,18.37
2017-07-30T03:53:37.525Z,18.39
2017-07-30T03:54:37.528Z,18.39
2017-07-30T03:55:37.529Z,18.40
2017-07-30T03:56:37.532Z,18.42
2017-07-30T03:57:37.545Z,18.45
2017-07-30T04:00:15.925Z,18.47
2017-07-30T04:00:17.065Z,18.50
2017-07-30T04:00:37.546Z,18.51
2017-07-30T04:01:37.551Z,18.51
2017-07-30T04:02:37.575Z,18.54
2017-07-30T04:03:37.551Z,18.56
2017-07-30T04:04:37.559Z,18.58
2017-07-30T04:05:37.558Z,18.59
2017-07-30T04:06:37.560Z,18.59
2017-07-30T04:07:37.562Z,18.57
2017-07-30T04:08:37.566Z,18.59
2017-07-30T04:09:37.570Z,18.61
2017-07-30T04:10:37.577Z,18.63
2017-07-30T04:11:37.577Z,18.65
2017-07-30T04:12:37.581Z,18.67
2017-07-30T04:13:37.586Z,18.70
2017-07-30T04:14:37.587Z,18.71
2017-07-30T04:15:37.587Z,18.75
2017-07-30T04:16:37.590Z,18.78
2017-07-30T04:17:37.592Z,18.82
2017-07-30T04:18:37.599Z,18.86
2017-07-30T04:19:37.599Z,18.90
2017-07-30T04:20:37.605Z,18.92
2017-07-30T04:21:37.603Z,18.91
2017-07-30T04:22:37.609Z,18.92
2017-07-30T04:23:37.611Z,18.94
2017-07-30T04:24:37.612Z,18.97
2017-07-30T04:25:37.618Z,18.96
2017-07-30T04:26:37.619Z,18.97
2017-07-30T04:27:37.620Z,18.97
2017-07-30T04:28:37.623Z,18.97
2017-07-30T04:29:37.624Z,18.96
2017-07-30T04:30:37.631Z,18.98
2017-07-30T04:31:37.636Z,19.00
2017-07-30T04:32:37.636Z,19.02
2017-07-30T04:33:37.635Z,19.06
2017-07-30T04:34:37.643Z,19.06
2017-07-30T04:35:37.647Z,19.07
2017-07-30T04:36:37.650Z,19.08
2017-07-30T04:37:37.650Z,19.11
2017-07-30T04:38:37.667Z,19.18
2017-07-30T04:39:37.661Z,19.25
2017-07-30T04:40:37.658Z,19.29
2017-07-30T04:41:37.657Z,19.32
2017-07-30T04:42:37.664Z,19.35
2017-07-30T04:43:37.666Z,19.38
2017-07-30T04:44:37.674Z,19.37
2017-07-30T04:45:37.674Z,19.40
2017-07-30T04:46:37.674Z,19.46
2017-07-30T04:47:37.678Z,19.53
2017-07-30T04:48:37.679Z,19.60
2017-07-30T04:49:37.683Z,19.65
2017-07-30T04:50:37.688Z,19.70
2017-07-30T04:51:37.689Z,19.76
2017-07-30T04:52:37.691Z,19.84
2017-07-30T04:53:37.698Z,19.90
2017-07-30T04:54:37.698Z,19.96
2017-07-30T04:55:37.705Z,20.02
2017-07-30T04:56:37.703Z,20.03
2017-07-30T04:57:37.705Z,20.05
2017-07-30T04:58:37.710Z,20.10
2017-07-30T04:59:37.715Z,20.14
2017-07-30T05:00:37.717Z,20.22
2017-07-30T05:01:37.719Z,20.29
2017-07-30T05:02:37.724Z,20.37
2017-07-30T05:03:37.721Z,20.42
2017-07-30T05:04:37.724Z,20.45
2017-07-30T05:05:37.729Z,20.51
2017-07-30T05:06:37.751Z,20.58
2017-07-30T05:07:37.763Z,20.69
2017-07-30T05:08:37.754Z,20.72
2017-07-30T05:09:37.741Z,20.71
2017-07-30T05:10:37.746Z,20.75
2017-07-30T05:11:37.746Z,20.85
2017-07-30T05:12:37.747Z,20.95
2017-07-30T05:13:37.750Z,21.05
2017-07-30T05:14:37.754Z,21.11
2017-07-30T05:15:37.755Z,21.20
2017-07-30T05:16:37.759Z,21.35
2017-07-30T05:17:37.762Z,21.52
2017-07-30T05:18:37.776Z,21.60
2017-07-30T05:19:37.771Z,21.68
2017-07-30T05:20:37.768Z,21.74
2017-07-30T05:21:37.791Z,21.80
2017-07-30T05:22:37.780Z,21.85
2017-07-30T05:23:37.803Z,21.91
2017-07-30T05:24:37.782Z,21.98
2017-07-30T05:25:37.785Z,22.08
2017-07-30T05:26:37.791Z,22.15
2017-07-30T05:27:37.811Z,22.27
2017-07-30T05:28:37.792Z,22.39
2017-07-30T05:29:37.796Z,22.47
2017-07-30T05:30:37.803Z,22.60
2017-07-30T05:31:37.803Z,22.68
2017-07-30T05:32:37.804Z,22.63
2017-07-30T05:33:37.811Z,22.47
2017-07-30T05:34:37.814Z,22.28
2017-07-30T05:35:37.821Z,22.14
2017-07-30T05:36:37.827Z,22.00
2017-07-30T05:37:37.817Z,21.89
2017-07-30T05:38:37.823Z,21.83
2017-07-30T05:39:37.823Z,21.76
2017-07-30T05:40:37.827Z,21.71
2017-07-30T05:41:37.830Z,21.66
2017-07-30T05:42:37.835Z,21.63
2017-07-30T05:43:37.841Z,21.65
2017-07-30T05:44:37.841Z,21.80
2017-07-30T05:45:37.846Z,21.98
2017-07-30T05:46:37.852Z,22.20
2017-07-30T05:47:37.851Z,22.30
2017-07-30T05:48:37.852Z,22.32
2017-07-30T05:49:37.852Z,22.31
2017-07-30T05:50:37.861Z,22.28
2017-07-30T05:51:37.860Z,22.29
2017-07-30T05:52:37.866Z,22.30
2017-07-30T05:53:37.878Z,22.25
2017-07-30T05:54:37.872Z,22.30
2017-07-30T05:55:37.871Z,22.31
2017-07-30T05:56:37.876Z,22.27
2017-07-30T05:57:37.884Z,22.25
2017-07-30T05:58:37.901Z,22.22
2017-07-30T05:59:37.884Z,22.22
2017-07-30T06:00:37.890Z,22.20
2017-07-30T06:01:37.892Z,22.21
2017-07-30T06:02:37.892Z,22.21
2017-07-30T06:03:37.893Z,22.25
2017-07-30T06:04:37.900Z,22.30
2017-07-30T06:05:38.009Z,22.39
2017-07-30T06:06:37.906Z,22.46
2017-07-30T06:07:37.906Z,22.51
2017-07-30T06:08:37.909Z,22.52
2017-07-30T06:09:37.919Z,22.49
2017-07-30T06:10:37.914Z,22.46
2017-07-30T06:11:37.939Z,22.45
2017-07-30T06:12:37.923Z,22.41
2017-07-30T06:13:37.924Z,22.28
2017-07-30T06:14:37.930Z,22.22
2017-07-30T06:15:37.930Z,22.20
2017-07-30T06:16:37.933Z,22.21
2017-07-30T06:17:37.935Z,22.21
2017-07-30T06:18:37.938Z,22.19
2017-07-30T06:19:37.941Z,22.21
2017-07-30T06:20:37.949Z,22.22
2017-07-30T06:21:37.947Z,22.22
2017-07-30T06:22:37.951Z,22.22
2017-07-30T06:23:37.949Z,22.23
2017-07-30T06:24:37.955Z,22.24
2017-07-30T06:25:37.957Z,22.26
2017-07-30T06:26:37.958Z,22.28
2017-07-30T06:27:37.963Z,22.31
2017-07-30T06:28:37.965Z,22.33
2017-07-30T06:29:37.976Z,22.36
2017-07-30T06:30:37.973Z,22.38
2017-07-30T06:31:37.975Z,22.42
2017-07-30T06:32:37.976Z,22.42
2017-07-30T06:33:37.980Z,22.43
2017-07-30T06:34:37.986Z,22.44
2017-07-30T06:35:37.987Z,22.42
2017-07-30T06:36:37.990Z,22.41
2017-07-30T06:37:37.993Z,22.42
2017-07-30T06:38:37.994Z,22.40
2017-07-30T06:39:38.021Z,22.38
2017-07-30T06:40:38.000Z,22.37
2017-07-30T06:41:38.003Z,22.33
2017-07-30T06:42:38.006Z,22.32
2017-07-30T06:43:38.042Z,22.29
2017-07-30T06:44:38.013Z,22.31
2017-07-30T06:45:38.017Z,22.33
2017-07-30T06:46:38.020Z,22.34
2017-07-30T06:47:38.024Z,22.33
2017-07-30T06:48:38.025Z,22.36
2017-07-30T06:49:38.024Z,22.40
2017-07-30T06:50:38.027Z,22.43
2017-07-30T06:51:38.030Z,22.47
2017-07-30T06:52:38.034Z,22.52
2017-07-30T06:53:38.037Z,22.57
2017-07-30T06:54:38.189Z,22.62
2017-07-30T06:55:38.049Z,22.68
2017-07-30T06:56:38.157Z,22.76
2017-07-30T06:57:38.452Z,22.92
2017-07-30T06:58:38.052Z,23.04
2017-07-30T06:59:38.056Z,23.27
2017-07-30T07:00:38.461Z,23.47
2017-07-30T07:01:38.240Z,23.68
2017-07-30T07:02:38.089Z,23.90
2017-07-30T07:03:38.174Z,24.15
2017-07-30T07:04:38.070Z,24.37
2017-07-30T07:05:38.072Z,24.56
2017-07-30T07:06:38.075Z,24.76
2017-07-30T07:07:38.077Z,24.93
2017-07-30T07:08:38.082Z,25.12
2017-07-30T07:09:38.083Z,25.26
2017-07-30T07:10:38.083Z,25.40
2017-07-30T07:11:38.088Z,25.47
2017-07-30T07:12:38.088Z,25.64
2017-07-30T07:13:38.092Z,25.82
2017-07-30T07:14:38.097Z,25.96
2017-07-30T07:15:38.100Z,26.06
2017-07-30T07:16:38.106Z,26.21
2017-07-30T07:17:38.107Z,26.34
2017-07-30T07:18:38.113Z,26.48
2017-07-30T07:19:38.113Z,26.58
2017-07-30T07:20:38.114Z,26.68
2017-07-30T07:21:38.117Z,26.66
2017-07-30T07:22:38.117Z,26.58
2017-07-30T07:23:38.122Z,26.44
2017-07-30T07:24:38.126Z,26.30
2017-07-30T07:25:38.127Z,26.14
2017-07-30T07:26:38.138Z,25.93
2017-07-30T07:27:38.138Z,25.73
2017-07-30T07:28:38.136Z,25.60
2017-07-30T07:29:38.145Z,25.49
2017-07-30T07:30:38.148Z,25.47
2017-07-30T07:31:38.144Z,25.55
2017-07-30T07:32:38.144Z,25.64
2017-07-30T07:33:38.155Z,25.78
2017-07-30T07:34:38.153Z,25.95
2017-07-30T07:35:38.155Z,26.19
2017-07-30T07:36:38.156Z,26.41
2017-07-30T07:37:38.158Z,26.43
2017-07-30T07:38:38.164Z,26.42
2017-07-30T07:39:38.168Z,26.37
2017-07-30T07:40:38.170Z,26.30
2017-07-30T07:41:38.174Z,26.27
2017-07-30T07:42:38.191Z,26.21
2017-07-30T07:43:38.188Z,26.18
2017-07-30T07:44:38.183Z,26.12
2017-07-30T07:45:38.191Z,26.12
2017-07-30T07:46:38.186Z,26.09
2017-07-30T07:47:38.188Z,26.00
2017-07-30T07:48:38.193Z,26.01
2017-07-30T07:49:38.195Z,26.05
2017-07-30T07:50:38.202Z,26.13
2017-07-30T07:51:38.202Z,26.26
2017-07-30T07:52:38.203Z,26.40
2017-07-30T07:53:38.206Z,26.51
2017-07-30T07:54:38.210Z,26.67
2017-07-30T07:55:38.228Z,26.81
2017-07-30T07:56:38.224Z,26.97
2017-07-30T07:57:38.222Z,27.17
2017-07-30T07:58:38.225Z,27.32
2017-07-30T07:59:38.225Z,27.37
2017-07-30T08:00:38.237Z,27.48
2017-07-30T08:01:38.228Z,27.62
2017-07-30T08:02:38.231Z,27.76
2017-07-30T08:03:38.234Z,27.78
2017-07-30T08:04:38.237Z,27.86
2017-07-30T08:05:38.265Z,27.95
2017-07-30T08:06:38.243Z,27.88
2017-07-30T08:07:38.245Z,27.89
2017-07-30T08:08:38.261Z,27.82
2017-07-30T08:09:38.285Z,27.93
2017-07-30T08:10:38.265Z,28.09
2017-07-30T08:11:38.267Z,28.24
2017-07-30T08:12:38.269Z,28.38
2017-07-30T08:13:38.268Z,28.46
2017-07-30T08:14:38.268Z,28.61
2017-07-30T08:15:38.311Z,28.61
2017-07-30T08:16:38.275Z,28.43
2017-07-30T08:17:38.317Z,28.04
2017-07-30T08:18:38.294Z,27.82
2017-07-30T08:19:38.294Z,27.74
2017-07-30T08:20:38.285Z,27.76
2017-07-30T08:21:38.288Z,27.88
2017-07-30T08:22:38.292Z,28.04
2017-07-30T08:23:38.290Z,28.22
2017-07-30T08:24:38.302Z,28.35
2017-07-30T08:25:38.303Z,28.51
2017-07-30T08:26:38.301Z,28.55
2017-07-30T08:27:38.307Z,28.56
2017-07-30T08:28:38.329Z,28.67
2017-07-30T08:29:38.315Z,28.83
2017-07-30T08:30:38.326Z,28.87
2017-07-30T08:31:38.315Z,28.88
2017-07-30T08:32:38.320Z,28.98
2017-07-30T08:33:38.322Z,29.12
2017-07-30T08:34:38.326Z,29.18
2017-07-30T08:35:38.338Z,29.16
2017-07-30T08:36:38.330Z,28.99
2017-07-30T08:37:38.334Z,28.90
2017-07-30T08:38:38.335Z,29.00
2017-07-30T08:39:38.342Z,29.06
2017-07-30T08:40:38.349Z,29.12
2017-07-30T08:41:38.374Z,29.23
2017-07-30T08:42:38.345Z,29.33
2017-07-30T08:43:38.349Z,29.45
2017-07-30T08:44:38.358Z,29.41
2017-07-30T08:45:38.361Z,29.50
2017-07-30T08:46:38.359Z,29.65
2017-07-30T08:47:38.364Z,29.81
2017-07-30T08:48:38.362Z,29.72
2017-07-30T08:49:38.373Z,29.63
2017-07-30T08:50:38.373Z,29.75
2017-07-30T08:51:38.375Z,29.93
2017-07-30T08:52:38.377Z,30.13
2017-07-30T08:53:38.383Z,30.20
2017-07-30T08:54:38.385Z,30.24
2017-07-30T08:55:38.386Z,30.39
2017-07-30T08:56:38.387Z,30.51
2017-07-30T08:57:38.391Z,30.60
2017-07-30T08:58:38.392Z,30.76
2017-07-30T08:59:38.396Z,30.77
2017-07-30T09:00:42.216Z,30.83
2017-07-30T09:01:38.405Z,30.81
2017-07-30T09:02:38.408Z,30.92
2017-07-30T09:03:38.407Z,31.05
2017-07-30T09:04:38.409Z,31.10
2017-07-30T09:05:38.411Z,31.12
2017-07-30T09:06:38.434Z,31.22
2017-07-30T09:07:38.419Z,31.34
2017-07-30T09:08:38.439Z,31.57
2017-07-30T09:09:38.471Z,31.64
2017-07-30T09:10:38.434Z,31.89
2017-07-30T09:11:38.431Z,32.09
2017-07-30T09:12:38.438Z,32.18
2017-07-30T09:13:38.446Z,32.15
2017-07-30T09:14:38.448Z,32.03
2017-07-30T09:15:38.443Z,31.81
2017-07-30T09:16:38.451Z,31.60
2017-07-30T09:17:38.466Z,31.36
2017-07-30T09:18:38.466Z,31.56
2017-07-30T09:19:38.468Z,31.71
2017-07-30T09:20:38.462Z,31.76
2017-07-30T09:21:38.476Z,31.66
2017-07-30T09:22:38.470Z,31.95
2017-07-30T09:23:38.486Z,32.32
2017-07-30T09:24:38.473Z,32.53
2017-07-30T09:25:38.472Z,32.68
2017-07-30T09:26:38.476Z,32.38
2017-07-30T09:27:38.475Z,32.13
2017-07-30T09:28:38.710Z,32.09
2017-07-30T09:29:38.481Z,32.11
2017-07-30T09:30:38.484Z,32.19
2017-07-30T09:31:38.502Z,32.00
2017-07-30T09:32:38.489Z,32.02
2017-07-30T09:33:38.496Z,31.81
2017-07-30T09:35:53.869Z,31.57
2017-07-30T09:36:38.504Z,31.70
2017-07-30T09:37:38.504Z,31.72
2017-07-30T09:38:38.507Z,31.73
2017-07-30T09:39:38.517Z,32.31
2017-07-30T09:40:38.515Z,33.03
2017-07-30T09:41:38.519Z,33.41
2017-07-30T09:42:38.544Z,33.83
2017-07-30T09:43:38.526Z,34.17
2017-07-30T09:44:38.538Z,34.67
2017-07-30T09:47:50.163Z,34.62
2017-07-30T09:47:52.076Z,34.36
2017-07-30T09:47:52.988Z,34.25
2017-07-30T09:48:38.543Z,33.72
2017-07-30T09:51:22.951Z,33.91
2017-07-30T09:51:24.099Z,34.09
2017-07-30T09:51:38.547Z,34.29
2017-07-30T09:52:38.577Z,34.69
2017-07-30T09:53:38.553Z,34.96
2017-07-30T09:54:38.598Z,35.24
2017-07-30T09:55:38.602Z,35.27
2017-07-30T09:56:38.574Z,35.58
2017-07-30T09:57:38.568Z,35.86
2017-07-30T09:58:38.572Z,36.01
2017-07-30T09:59:39.132Z,35.99
2017-07-30T10:00:38.595Z,35.50
2017-07-30T10:01:38.632Z,34.85
2017-07-30T10:02:38.590Z,34.54
2017-07-30T10:03:38.605Z,34.30
2017-07-30T10:04:38.587Z,34.22
2017-07-30T10:05:38.604Z,33.99
2017-07-30T10:06:38.677Z,34.12
2017-07-30T10:07:38.594Z,34.42
2017-07-30T10:08:38.598Z,34.79
2017-07-30T10:09:38.605Z,34.95
2017-07-30T10:10:38.604Z,35.14
2017-07-30T10:11:38.602Z,35.50
2017-07-30T10:12:38.630Z,35.76
2017-07-30T10:13:38.683Z,35.95
2017-07-30T10:14:38.613Z,35.85
2017-07-30T10:15:38.644Z,35.08
2017-07-30T10:16:38.621Z,34.73
2017-07-30T10:17:38.617Z,34.53
2017-07-30T10:18:38.623Z,34.56
2017-07-30T10:19:38.723Z,34.62
2017-07-30T10:20:38.627Z,34.86
2017-07-30T10:21:38.631Z,35.27
2017-07-30T10:22:38.632Z,35.51
2017-07-30T10:23:38.655Z,35.34
2017-07-30T10:24:38.638Z,35.21
2017-07-30T10:25:38.696Z,35.24
2017-07-30T10:26:38.665Z,34.69
2017-07-30T10:27:38.781Z,35.01
2017-07-30T10:28:38.649Z,35.23
2017-07-30T10:29:38.656Z,35.23
2017-07-30T10:30:38.656Z,35.31
2017-07-30T10:31:38.750Z,35.33
2017-07-30T10:32:38.666Z,35.35
2017-07-30T10:33:38.691Z,35.51
2017-07-30T10:34:38.686Z,35.51
2017-07-30T10:35:38.684Z,35.52
2017-07-30T10:36:38.672Z,35.49
2017-07-30T10:37:38.678Z,35.43
2017-07-30T10:38:38.679Z,35.37
2017-07-30T10:39:38.680Z,35.57
2017-07-30T10:40:38.710Z,35.48
2017-07-30T10:41:38.692Z,35.52
2017-07-30T10:42:38.689Z,35.38
2017-07-30T10:43:38.692Z,35.00
2017-07-30T10:44:38.693Z,35.14
2017-07-30T10:45:38.705Z,35.32
2017-07-30T10:46:38.722Z,34.78
2017-07-30T10:47:38.704Z,34.72
2017-07-30T10:48:38.709Z,34.63
2017-07-30T10:49:38.710Z,34.50
2017-07-30T10:50:38.759Z,34.66
2017-07-30T10:51:38.716Z,34.87
2017-07-30T10:52:38.720Z,34.92
2017-07-30T10:53:38.723Z,34.60
2017-07-30T10:54:38.734Z,34.15
2017-07-30T10:55:38.741Z,34.11
2017-07-30T10:56:38.735Z,33.71
2017-07-30T10:57:38.735Z,33.07
2017-07-30T10:58:38.781Z,33.20
2017-07-30T10:59:38.742Z,33.36
2017-07-30T11:00:38.761Z,33.49
2017-07-30T11:01:38.750Z,33.71
2017-07-30T11:02:38.745Z,34.24
2017-07-30T11:03:38.751Z,34.26
2017-07-30T11:04:38.767Z,34.21
2017-07-30T11:05:38.756Z,34.38
2017-07-30T11:06:38.762Z,34.38
2017-07-30T11:07:38.810Z,34.76
2017-07-30T11:08:38.780Z,34.95
2017-07-30T11:09:38.767Z,34.99
2017-07-30T11:10:38.810Z,34.89
2017-07-30T11:11:38.774Z,34.78
2017-07-30T11:12:38.791Z,34.63
2017-07-30T11:13:38.779Z,34.65
2017-07-30T11:14:38.802Z,34.71
2017-07-30T11:15:38.790Z,34.32
2017-07-30T11:16:38.787Z,34.29
2017-07-30T11:17:38.787Z,34.49
2017-07-30T11:18:38.792Z,34.42
2017-07-30T11:19:38.797Z,34.41
2017-07-30T11:20:38.820Z,34.45
2017-07-30T11:21:38.809Z,34.34
2017-07-30T11:22:38.808Z,34.43
2017-07-30T11:23:38.815Z,34.74
2017-07-30T11:24:38.811Z,35.06
2017-07-30T11:25:38.819Z,35.06
2017-07-30T11:26:38.824Z,34.80
2017-07-30T11:27:38.820Z,34.85
2017-07-30T11:28:38.822Z,35.00
2017-07-30T11:29:38.854Z,34.98
2017-07-30T11:30:38.868Z,35.35
2017-07-30T11:31:38.913Z,35.64
2017-07-30T11:32:38.833Z,35.53
2017-07-30T11:33:38.877Z,35.17
2017-07-30T11:34:38.853Z,35.22
2017-07-30T11:35:38.843Z,34.95
2017-07-30T11:36:38.845Z,34.90
2017-07-30T11:37:38.856Z,34.97
2017-07-30T11:38:38.851Z,35.16
2017-07-30T11:39:38.892Z,35.16
2017-07-30T11:40:38.858Z,35.08
2017-07-30T11:41:38.857Z,35.08
2017-07-30T11:42:38.862Z,34.85
2017-07-30T11:43:38.866Z,35.08
2017-07-30T11:44:38.867Z,35.16
2017-07-30T11:45:38.872Z,35.40
2017-07-30T11:46:38.924Z,35.61
2017-07-30T11:47:38.972Z,35.68
2017-07-30T11:48:38.890Z,35.50
2017-07-30T11:49:38.880Z,35.33
2017-07-30T11:50:38.886Z,34.85
2017-07-30T11:51:38.888Z,34.96
2017-07-30T11:52:38.894Z,34.93
2017-07-30T11:53:38.912Z,35.10
2017-07-30T11:54:38.971Z,35.11
2017-07-30T11:55:38.917Z,35.10
2017-07-30T11:56:38.903Z,35.29
2017-07-30T11:57:38.906Z,35.45
2017-07-30T11:58:38.912Z,35.08
2017-07-30T11:59:38.916Z,34.77
2017-07-30T12:00:38.914Z,34.70
2017-07-30T12:01:38.927Z,34.60
2017-07-30T12:02:38.919Z,34.70
2017-07-30T12:03:38.922Z,34.93
2017-07-30T12:04:38.923Z,34.91
2017-07-30T12:05:38.930Z,34.78
2017-07-30T12:06:38.999Z,34.59
2017-07-30T12:07:38.978Z,34.63
2017-07-30T12:08:38.937Z,34.62
2017-07-30T12:09:38.938Z,34.77
2017-07-30T12:10:38.949Z,34.88
2017-07-30T12:11:38.948Z,34.98
2017-07-30T12:12:38.951Z,35.02
2017-07-30T12:13:38.950Z,34.67
2017-07-30T12:14:38.953Z,34.52
2017-07-30T12:15:38.954Z,34.68
2017-07-30T12:16:38.962Z,34.68
2017-07-30T12:17:38.964Z,34.83
2017-07-30T12:18:38.965Z,34.53
2017-07-30T12:19:38.970Z,34.41
2017-07-30T12:20:38.978Z,34.68
2017-07-30T12:21:38.977Z,34.77
2017-07-30T12:22:39.105Z,34.65
2017-07-30T12:23:38.979Z,34.33
2017-07-30T12:24:38.999Z,34.41
2017-07-30T12:25:38.989Z,34.55
2017-07-30T12:26:38.991Z,34.41
2017-07-30T12:27:39.009Z,34.38
2017-07-30T12:28:38.996Z,34.40
2017-07-30T12:29:38.996Z,34.48
2017-07-30T12:30:38.996Z,34.53
2017-07-30T12:31:40.053Z,34.52
2017-07-30T12:32:40.244Z,34.54
2017-07-30T12:33:39.120Z,34.36
2017-07-30T12:34:39.009Z,34.36
2017-07-30T12:35:39.010Z,34.35
2017-07-30T12:36:39.013Z,34.30
2017-07-30T12:37:39.017Z,34.04
2017-07-30T12:38:39.112Z,34.12
2017-07-30T12:39:39.026Z,34.19
2017-07-30T12:40:39.028Z,34.23
2017-07-30T12:41:39.028Z,34.24
2017-07-30T12:42:39.030Z,34.16
2017-07-30T12:43:39.037Z,34.20
2017-07-30T12:44:39.045Z,34.24
2017-07-30T12:45:39.068Z,34.18
2017-07-30T12:46:39.052Z,33.97
2017-07-30T12:47:39.048Z,33.81
2017-07-30T12:48:39.055Z,33.70
2017-07-30T12:49:39.055Z,33.78
2017-07-30T12:50:39.059Z,33.72
2017-07-30T12:51:39.093Z,33.94
2017-07-30T12:52:39.099Z,33.78
2017-07-30T12:53:39.064Z,33.31